createdAt,value
2018-10-12T00:00:17.143Z,15.9
2018-10-12T00:05:16.968Z,15.3
2018-10-12T00:10:17.015Z,15.3
2018-10-12T00:15:17.476Z,15.1
2018-10-12T00:20:17.720Z,12.1
2018-10-12T00:25:17.938Z,15.5
2018-10-12T00:30:16.776Z,15.5
2018-10-12T00:35:17.872Z,15.8
2018-10-12T00:40:16.790Z,11.5
2018-10-12T00:45:17.715Z,16.1
2018-10-12T00:50:17.531Z,15.5
2018-10-12T00:55:17.323Z,15.2
2018-10-12T01:00:17.142Z,15.4
2018-10-12T01:05:16.937Z,15.1
2018-10-12T01:10:16.891Z,15.3
2018-10-12T01:15:17.710Z,15.3
2018-10-12T01:20:17.980Z,15.1
2018-10-12T01:25:16.774Z,13.1
2018-10-12T01:30:17.630Z,15.2
2018-10-12T01:35:17.435Z,12.8
2018-10-12T01:40:17.394Z,14.7
2018-10-12T01:45:17.218Z,16.1
2018-10-12T01:50:17.067Z,16.3
2018-10-12T01:55:16.890Z,14.9
2018-10-12T02:00:17.762Z,15.3
2018-10-12T02:05:17.851Z,14.9
2018-10-12T02:10:16.928Z,15.6
2018-10-12T02:15:16.792Z,11.8
2018-10-12T02:20:16.810Z,15.3
2018-10-12T02:25:17.859Z,14.9
2018-10-12T02:30:17.675Z,15.4
2018-10-12T02:35:17.472Z,9.5
2018-10-12T02:40:17.435Z,15.8
2018-10-12T02:45:17.239Z,9.2
2018-10-12T02:50:17.063Z,15.7
2018-10-12T02:55:16.872Z,11.2
2018-10-12T03:00:18.186Z,15.6
2018-10-12T03:05:16.966Z,11.2
2018-10-12T03:10:16.925Z,15.5
2018-10-12T03:15:16.710Z,12.1
2018-10-12T03:20:18.018Z,15.1
2018-10-12T03:25:16.812Z,13.2
2018-10-12T03:30:17.933Z,15.2
2018-10-12T03:35:16.724Z,13.4
2018-10-12T03:40:17.867Z,15.9
2018-10-12T03:45:17.699Z,15.6
2018-10-12T03:50:17.495Z,10.4
2018-10-12T03:55:17.342Z,15.7
2018-10-12T04:00:17.147Z,15.7
2018-10-12T04:05:16.980Z,16
2018-10-12T04:10:17.306Z,15.4
2018-10-12T04:15:17.391Z,10.3
2018-10-12T04:20:17.667Z,15
2018-10-12T04:25:17.487Z,8.9
2018-10-12T04:30:17.415Z,16
2018-10-12T04:35:17.257Z,16.2
2018-10-12T04:40:17.236Z,16.1
2018-10-12T04:45:17.036Z,12.4
2018-10-12T04:50:16.864Z,16.5
2018-10-12T04:55:17.904Z,17.4
2018-10-12T05:00:18.023Z,15.9
2018-10-12T05:05:16.898Z,15.9
2018-10-12T05:10:16.857Z,16.4
2018-10-12T05:15:16.758Z,16.1
2018-10-12T05:20:16.763Z,15.7
2018-10-12T05:25:17.630Z,16.1
2018-10-12T05:30:17.753Z,16.5
2018-10-12T05:35:17.627Z,16.4
2018-10-12T05:40:17.566Z,16.1
2018-10-12T05:45:17.439Z,16.9
2018-10-12T05:50:17.264Z,16.6
2018-10-12T05:55:17.074Z,15.9
2018-10-12T06:00:16.890Z,11.1
2018-10-12T06:05:18.134Z,16.8
2018-10-12T06:10:17.149Z,11.6
2018-10-12T06:15:17.105Z,16.2
2018-10-12T06:20:17.404Z,11.3
2018-10-12T06:25:17.657Z,15.8
2018-10-12T06:30:17.667Z,16
2018-10-12T06:35:17.988Z,16.6
2018-10-12T06:40:16.948Z,16
2018-10-12T06:45:16.758Z,16.6
2018-10-12T06:50:17.570Z,16.7
2018-10-12T06:55:17.395Z,15.5
2018-10-12T07:00:17.215Z,16.3
2018-10-12T07:05:17.082Z,16.5
2018-10-12T07:10:17.034Z,16.9
2018-10-12T07:15:16.830Z,12.6
2018-10-12T07:20:16.951Z,16.6
2018-10-12T07:25:16.782Z,16.5
2018-10-12T07:30:17.703Z,16.6
2018-10-12T07:35:17.591Z,13.9
2018-10-12T07:40:17.576Z,16.7
2018-10-12T07:45:17.414Z,16.2
2018-10-12T07:50:17.214Z,11
2018-10-12T07:55:17.040Z,16.5
2018-10-12T08:00:17.182Z,17.1
2018-10-12T08:05:17.480Z,16.4
2018-10-12T08:10:17.748Z,16.1
2018-10-12T08:15:17.844Z,16.2
2018-10-12T08:20:17.675Z,15.5
2018-10-12T08:25:17.556Z,15.9
2018-10-12T08:30:17.660Z,15.2
2018-10-12T08:35:17.698Z,15
2018-10-12T08:40:17.733Z,9.5
2018-10-12T08:45:17.740Z,13.7
2018-10-12T08:50:17.571Z,13.7
2018-10-12T08:55:17.410Z,9.5
2018-10-12T09:00:17.235Z,13.1
2018-10-12T09:05:17.070Z,13
2018-10-12T09:10:17.002Z,12.9
2018-10-12T09:15:16.937Z,12.7
2018-10-12T09:20:17.224Z,11.8
2018-10-12T09:25:17.187Z,12.2
2018-10-12T09:30:17.169Z,9.9
2018-10-12T09:35:17.114Z,9.9
2018-10-12T09:40:17.069Z,11.8
2018-10-12T09:45:16.891Z,10.8
2018-10-12T09:50:17.775Z,9.6
2018-10-12T09:55:17.610Z,11
2018-10-12T10:00:17.530Z,10.3
2018-10-12T10:05:17.374Z,10.1
2018-10-12T10:10:17.643Z,8.6
2018-10-12T10:15:17.830Z,5.4
2018-10-12T10:20:16.839Z,5.6
2018-10-12T10:25:17.673Z,8.6
2018-10-12T10:30:17.515Z,8.6
2018-10-12T10:35:17.591Z,7.9
2018-10-12T10:40:17.547Z,7.3
2018-10-12T10:45:17.368Z,7.8
2018-10-12T10:50:17.182Z,7.2
2018-10-12T10:55:16.999Z,7.4
2018-10-12T11:00:16.821Z,7.3
2018-10-12T11:05:17.980Z,7.3
2018-10-12T11:10:16.934Z,7.2
2018-10-12T11:15:16.755Z,6.4
2018-10-12T11:20:16.774Z,6.3
2018-10-12T11:25:17.686Z,6.6
2018-10-12T11:30:17.479Z,6
2018-10-12T11:35:17.266Z,3.7
2018-10-12T11:40:17.194Z,6.9
2018-10-12T11:45:17.141Z,4.3
2018-10-12T11:50:16.938Z,3.8
2018-10-12T11:55:16.726Z,4.3
2018-10-12T12:00:17.811Z,4
2018-10-12T12:05:17.866Z,4.6
2018-10-12T12:10:16.814Z,3.7
2018-10-12T12:15:17.881Z,4.5
2018-10-12T12:20:16.918Z,3.5
2018-10-12T12:25:16.721Z,4.6
2018-10-12T12:30:17.594Z,4.5
2018-10-12T12:35:18.398Z,4.4
2018-10-12T12:40:17.606Z,4.2
2018-10-12T12:45:17.444Z,2.3
2018-10-12T12:50:17.251Z,3.3
2018-10-12T12:55:17.038Z,3
2018-10-12T13:00:17.059Z,2.7
2018-10-12T13:05:16.947Z,1.9
2018-10-12T13:10:16.864Z,3.4
2018-10-12T13:15:17.683Z,1.6
2018-10-12T13:20:17.668Z,4
2018-10-12T13:25:17.772Z,1.6
2018-10-12T13:30:17.562Z,3.1
2018-10-12T13:35:17.355Z,2.3
2018-10-12T13:40:17.282Z,2.9
2018-10-12T13:45:17.082Z,4.2
2018-10-12T13:50:16.875Z,2.8
2018-10-12T13:55:17.672Z,2.3
2018-10-12T14:00:17.662Z,2.3
2018-10-12T14:05:17.772Z,2.4
2018-10-12T14:10:17.777Z,2.4
2018-10-12T14:15:17.881Z,2.9
2018-10-12T14:20:16.920Z,2.3
2018-10-12T14:25:17.088Z,2.7
2018-10-12T14:30:17.051Z,2.1
2018-10-12T14:35:16.928Z,3.4
2018-10-12T14:40:16.966Z,1.6
2018-10-12T14:45:16.844Z,1.7
2018-10-12T14:50:17.748Z,2.4
2018-10-12T14:55:17.625Z,2
2018-10-12T15:00:17.563Z,4.1
2018-10-12T15:05:17.716Z,1.5
2018-10-12T15:10:17.778Z,2.3
2018-10-12T15:15:17.763Z,2.4
2018-10-12T15:20:16.994Z,2.1
2018-10-12T15:25:17.060Z,2
2018-10-12T15:30:16.988Z,2.3
2018-10-12T15:35:17.185Z,3.1
2018-10-12T15:40:17.122Z,2.2
2018-10-12T15:45:16.940Z,4.5
2018-10-12T15:50:16.756Z,1.7
2018-10-12T15:55:17.658Z,2
2018-10-12T16:00:17.471Z,1
2018-10-12T16:05:17.636Z,3.1
2018-10-12T16:10:17.685Z,2.6
2018-10-12T16:15:17.537Z,2.1
2018-10-12T16:20:17.599Z,2.4
2018-10-12T16:25:17.675Z,2.9
2018-10-12T16:30:17.798Z,3.5
2018-10-12T16:35:17.874Z,1.8
2018-10-12T16:40:16.888Z,4.2
2018-10-12T16:45:17.736Z,2
2018-10-12T16:50:17.773Z,2.8
2018-10-12T16:55:17.678Z,2.6
2018-10-12T17:00:17.582Z,2.9
2018-10-12T17:05:17.404Z,3.1
2018-10-12T17:10:17.599Z,2.4
2018-10-12T17:15:17.716Z,3.5
2018-10-12T17:20:17.763Z,2.1
2018-10-12T17:25:17.873Z,5
2018-10-12T17:30:17.797Z,3.5
2018-10-12T17:35:17.879Z,2.4
2018-10-12T17:40:17.082Z,4.7
2018-10-12T17:45:16.992Z,5.5
2018-10-12T17:50:17.055Z,4.4
2018-10-12T17:55:17.098Z,3.8
2018-10-12T18:00:17.417Z,3.3
2018-10-12T18:05:17.383Z,3.6
2018-10-12T18:10:17.575Z,2.9
2018-10-12T18:15:17.637Z,4.4
2018-10-12T18:20:17.703Z,4.9
2018-10-12T18:25:17.622Z,4.7
2018-10-12T18:30:17.805Z,4.7
2018-10-12T18:35:17.887Z,4.5
2018-10-12T18:40:16.936Z,4.2
2018-10-12T18:45:16.795Z,5.7
2018-10-12T18:50:18.331Z,5.5
2018-10-12T18:55:17.474Z,3.6
2018-10-12T19:00:17.373Z,3.3
2018-10-12T19:05:17.349Z,5.9
2018-10-12T19:10:17.579Z,5.8
2018-10-12T19:15:17.732Z,5.4
2018-10-12T19:20:16.925Z,5.9
2018-10-12T19:25:16.835Z,6.2
2018-10-12T19:30:17.786Z,6.6
2018-10-12T19:35:18.102Z,3.7
2018-10-12T19:40:17.102Z,6.7
2018-10-12T19:45:17.061Z,7.2
2018-10-12T19:50:17.218Z,6.8
2018-10-12T19:55:17.217Z,6.5
2018-10-12T20:00:17.326Z,6.8
2018-10-12T20:05:17.191Z,6.9
2018-10-12T20:10:17.573Z,7.7
2018-10-12T20:15:17.658Z,7.4
2018-10-12T20:20:17.698Z,7
2018-10-12T20:25:17.786Z,3.9
2018-10-12T20:30:17.842Z,5
2018-10-12T20:35:17.761Z,6.6
2018-10-12T20:40:18.013Z,7.2
2018-10-12T20:45:16.945Z,7.3
2018-10-12T20:50:16.767Z,6.9
2018-10-12T20:55:17.884Z,7
2018-10-12T21:00:18.080Z,6.9
2018-10-12T21:05:17.166Z,6.3
2018-10-12T21:10:17.295Z,6.9
2018-10-12T21:15:17.427Z,6.9
2018-10-12T21:20:17.650Z,7.2
2018-10-12T21:25:17.762Z,6.4
2018-10-12T21:30:17.859Z,6.4
2018-10-12T21:35:18.034Z,6.7
2018-10-12T21:40:17.247Z,6.6
2018-10-12T21:45:17.347Z,6.7
2018-10-12T21:50:17.300Z,4.9
2018-10-12T21:55:17.406Z,6.7
2018-10-12T22:00:17.400Z,6.7
2018-10-12T22:05:17.568Z,4.8
2018-10-12T22:10:17.795Z,6.5
2018-10-12T22:15:17.910Z,6.5
2018-10-12T22:20:16.957Z,6.5
2018-10-12T22:25:16.943Z,7
2018-10-12T22:30:16.884Z,6.5
2018-10-12T22:35:17.962Z,6.3
2018-10-12T22:40:17.190Z,6.6
2018-10-12T22:45:17.087Z,6.7
2018-10-12T22:50:17.247Z,6.6
2018-10-12T22:55:17.059Z,5.4
2018-10-12T23:00:17.067Z,6.5
2018-10-12T23:05:17.190Z,5.8
2018-10-12T23:10:17.362Z,7.6
2018-10-12T23:15:17.264Z,6.8
2018-10-12T23:20:17.382Z,6.2
2018-10-12T23:25:17.302Z,6.5
2018-10-12T23:30:17.370Z,4.8
2018-10-12T23:35:17.454Z,6.3
2018-10-12T23:40:17.674Z,6.2
2018-10-12T23:45:17.734Z,4.9
2018-10-12T23:50:17.586Z,6.5
2018-10-12T23:55:17.665Z,6.5
